METAR Data
IDs: Format: Raw Decoded Include TAF

Data at: 1438 UTC 21 Apr 2021

METAR for:KHPT (Hampton Muni, IA, US)
Text:KHPT 211435Z AUTO 34012KT 10SM OVC065 02/M08 A3018 RMK AO2
Temperature: 2.0°C ( 36°F)
Dewpoint: -8.0°C ( 18°F) [RH = 47%]
Pressure (altimeter):30.18 inches Hg (1022.1 mb)
Winds:from the NNW (340 degrees) at 14 MPH (12 knots; 6.2 m/s)
Visibility:10 or more sm (16+ km)
Ceiling:6500 feet AGL
Clouds: overcast cloud deck at 6500 feet AGL
QC Flag:automated observation with no human augmentation